Time;durP1;ratioP1;P1;durP2;ratioP2;P2;SDS_P1;SDS_P2;PMS_P1;PMS_P2;Temp;Humidity;BMP_temperature;BMP_pressure;BME280_temperature;BME280_humidity;BME280_pressure;Samples;Min_cycle;Max_cycle;Signal;HPM_P1;HPM_P2
2024/01/13 00:01:50;;;;;;;1999.90;999.90;;;-1.40;99.90;;;;;;6096073;23;20007;-76
2024/01/13 00:04:16;;;;;;;1999.90;999.90;;;-1.50;99.90;;;;;;6096711;23;20007;-74
2024/01/13 00:06:41;;;;;;;1999.90;999.90;;;-1.40;99.90;;;;;;6096469;23;20015;-74
2024/01/13 00:09:07;;;;;;;1999.90;999.90;;;-1.40;99.90;;;;;;6096614;23;20011;-75
2024/01/13 00:11:33;;;;;;;1999.90;999.90;;;-1.50;99.90;;;;;;6095977;23;20475;-74
2024/01/13 00:13:58;;;;;;;1999.90;999.90;;;-1.50;99.90;;;;;;6096530;23;20074;-74
2024/01/13 00:16:24;;;;;;;1999.90;999.90;;;-1.50;99.90;;;;;;6096364;23;20091;-75
2024/01/13 00:18:50;;;;;;;1999.90;999.90;;;-1.50;99.90;;;;;;6096578;23;20015;-74
2024/01/13 00:21:15;;;;;;;1999.90;999.90;;;-1.50;99.90;;;;;;6095343;23;20102;-73
2024/01/13 00:23:41;;;;;;;1999.90;999.90;;;-1.60;99.90;;;;;;6091119;23;20009;-74
2024/01/13 00:26:06;;;;;;;1999.90;999.90;;;-1.60;99.90;;;;;;6095049;23;20011;-75
2024/01/13 00:28:32;;;;;;;1999.90;999.90;;;-1.60;99.90;;;;;;6096685;23;20061;-74
2024/01/13 00:30:58;;;;;;;1999.90;999.90;;;-1.60;99.90;;;;;;6095161;23;20018;-76
2024/01/13 00:33:23;;;;;;;1999.90;999.90;;;-1.60;99.90;;;;;;6097013;23;20014;-74
2024/01/13 00:35:49;;;;;;;1999.90;999.90;;;-1.60;99.90;;;;;;6097418;23;20026;-74
2024/01/13 00:38:15;;;;;;;1999.90;999.90;;;-1.50;99.90;;;;;;6097331;23;20393;-75
2024/01/13 00:40:41;;;;;;;1999.90;999.90;;;-1.50;99.90;;;;;;6097183;23;20013;-74
2024/01/13 00:43:06;;;;;;;1999.90;999.90;;;-1.50;99.90;;;;;;6097008;23;20010;-74
2024/01/13 00:45:32;;;;;;;1999.90;999.90;;;-1.60;99.90;;;;;;6097363;23;20095;-74
2024/01/13 00:47:57;;;;;;;1999.90;999.90;;;-1.60;99.90;;;;;;6096860;23;20011;-74
2024/01/13 00:50:23;;;;;;;1999.90;999.90;;;-1.60;99.90;;;;;;6097400;23;20013;-74
2024/01/13 00:52:48;;;;;;;1999.90;999.90;;;-1.60;99.90;;;;;;6096885;23;20030;-75
2024/01/13 00:55:14;;;;;;;1999.90;999.90;;;-1.60;99.90;;;;;;6097225;23;20023;-74
2024/01/13 00:57:40;;;;;;;1999.90;999.90;;;-1.50;99.90;;;;;;6096868;23;20423;-74
2024/01/13 01:00:06;;;;;;;1999.90;999.90;;;-1.50;99.90;;;;;;6097246;23;20015;-74
2024/01/13 01:02:31;;;;;;;1999.90;999.90;;;-1.60;99.90;;;;;;6096898;23;20038;-73
2024/01/13 01:04:57;;;;;;;1999.90;999.90;;;-1.60;99.90;;;;;;6097120;23;20038;-72
2024/01/13 01:07:23;;;;;;;1999.90;999.90;;;-1.60;99.90;;;;;;6096927;23;20038;-72
2024/01/13 01:09:48;;;;;;;1999.90;999.90;;;-1.60;99.90;;;;;;6097120;23;20022;-73
2024/01/13 01:12:14;;;;;;;1999.90;999.90;;;-1.60;99.90;;;;;;6096754;23;20427;-72
2024/01/13 01:14:39;;;;;;;1999.90;999.90;;;-1.60;99.90;;;;;;6096703;23;20015;-72
2024/01/13 01:17:05;;;;;;;1999.90;999.90;;;-1.70;99.90;;;;;;6097082;23;20019;-74
2024/01/13 01:19:31;;;;;;;1999.90;999.90;;;-1.70;99.90;;;;;;6098890;23;20082;-75
2024/01/13 01:21:56;;;;;;;1999.90;999.90;;;-1.70;99.90;;;;;;6098554;23;20097;-74
2024/01/13 01:24:22;;;;;;;1999.90;999.90;;;-1.60;99.90;;;;;;6098794;23;20002;-74
2024/01/13 01:26:47;;;;;;;1999.90;999.90;;;-1.70;99.90;;;;;;6098535;23;20015;-76
2024/01/13 01:29:13;;;;;;;1999.90;999.90;;;-1.70;99.90;;;;;;6098821;23;20007;-72
2024/01/13 01:31:38;;;;;;;1999.90;999.90;;;-1.60;99.90;;;;;;6098309;23;20015;-72
2024/01/13 01:34:04;;;;;;;1999.90;999.90;;;-1.60;99.90;;;;;;6098595;23;20011;-74
2024/01/13 01:36:29;;;;;;;1999.90;999.90;;;-1.50;99.90;;;;;;6098059;23;20340;-73
2024/01/13 01:38:55;;;;;;;1999.90;999.90;;;-1.60;99.90;;;;;;6098734;23;20003;-72
2024/01/13 01:41:21;;;;;;;1999.90;999.90;;;-1.60;99.90;;;;;;6098373;23;20443;-72
2024/01/13 01:43:47;;;;;;;1999.90;999.90;;;-1.60;99.90;;;;;;6098652;23;20011;-73
2024/01/13 01:46:14;;;;;;;1999.90;999.90;;;-1.60;99.90;;;;;;6097886;23;20113;-73
2024/01/13 01:48:41;;;;;;;1999.90;999.90;;;-1.60;99.90;;;;;;6099561;22;20019;-73
2024/01/13 01:51:07;;;;;;;1999.90;999.90;;;-1.70;99.90;;;;;;6097766;23;20022;-73
2024/01/13 01:53:35;;;;;;;1999.90;999.90;;;-1.70;99.90;;;;;;6098880;23;20521;-74
2024/01/13 01:56:03;;;;;;;1999.90;999.90;;;-1.60;99.90;;;;;;6098520;23;20015;-73
2024/01/13 01:58:29;;;;;;;1999.90;999.90;;;-1.60;99.90;;;;;;6098366;23;20046;-73
2024/01/13 02:00:55;;;;;;;1999.90;999.90;;;-1.60;99.90;;;;;;6101561;23;20368;-74
2024/01/13 02:03:21;;;;;;;1999.90;999.90;;;-1.60;99.90;;;;;;6099157;23;20038;-73
2024/01/13 02:05:46;;;;;;;1999.90;999.90;;;-1.60;99.90;;;;;;6095984;23;20446;-73
2024/01/13 02:08:13;;;;;;;1999.90;999.90;;;-1.60;99.90;;;;;;6098491;23;20007;-73
2024/01/13 02:10:38;;;;;;;1999.90;999.90;;;-1.60;99.90;;;;;;6096744;23;20013;-73
2024/01/13 02:13:04;;;;;;;1999.90;999.90;;;-1.60;99.90;;;;;;6098105;23;20007;-73
2024/01/13 02:15:30;;;;;;;1999.90;999.90;;;-1.60;99.90;;;;;;6098365;23;20022;-73
2024/01/13 02:17:55;;;;;;;1999.90;999.90;;;-1.60;99.90;;;;;;6098169;23;20013;-74
2024/01/13 02:20:21;;;;;;;1999.90;999.90;;;-1.60;99.90;;;;;;6098291;23;20014;-73
2024/01/13 02:22:46;;;;;;;1999.90;999.90;;;-1.60;99.90;;;;;;6098102;23;19999;-73
2024/01/13 02:25:12;;;;;;;1999.90;999.90;;;-1.50;99.90;;;;;;6097794;23;20030;-73
2024/01/13 02:27:37;;;;;;;1999.90;999.90;;;-1.50;99.90;;;;;;6096698;23;20022;-73
2024/01/13 02:30:03;;;;;;;1999.90;999.90;;;-1.60;99.90;;;;;;6096696;23;20458;-73
2024/01/13 02:32:29;;;;;;;1999.90;999.90;;;-1.60;99.90;;;;;;6097967;23;20007;-73
2024/01/13 02:34:54;;;;;;;1999.90;999.90;;;-1.60;99.90;;;;;;6098026;23;20011;-73
2024/01/13 02:37:20;;;;;;;1999.90;999.90;;;-1.60;99.90;;;;;;6097934;23;20327;-73
2024/01/13 02:39:46;;;;;;;1999.90;999.90;;;-1.70;99.90;;;;;;6098216;23;20396;-73
2024/01/13 02:42:11;;;;;;;1999.90;999.90;;;-1.70;99.90;;;;;;6096351;23;20466;-73
2024/01/13 02:44:37;;;;;;;1999.90;999.90;;;-1.70;99.90;;;;;;6098158;23;20042;-73
2024/01/13 02:47:03;;;;;;;1999.90;999.90;;;-1.70;99.90;;;;;;6097817;23;20416;-73
2024/01/13 02:49:28;;;;;;;1999.90;999.90;;;-1.80;99.90;;;;;;6098181;23;20342;-73
2024/01/13 02:51:54;;;;;;;1999.90;999.90;;;-1.70;99.90;;;;;;6098030;23;20011;-73
2024/01/13 02:54:19;;;;;;;1999.90;999.90;;;-1.70;99.90;;;;;;6097980;23;20061;-73
2024/01/13 02:56:45;;;;;;;1999.90;999.90;;;-1.70;99.90;;;;;;6097793;23;20014;-73
2024/01/13 02:59:10;;;;;;;1999.90;999.90;;;-1.70;99.90;;;;;;6096411;23;20015;-73
2024/01/13 03:01:36;;;;;;;1999.90;999.90;;;-1.70;99.90;;;;;;6095937;23;20015;-73
2024/01/13 03:04:02;;;;;;;1999.90;999.90;;;-1.70;99.90;;;;;;6098068;23;20011;-73
2024/01/13 03:06:28;;;;;;;1999.90;999.90;;;-1.70;99.90;;;;;;6097831;23;20018;-73
2024/01/13 03:08:54;;;;;;;1999.90;999.90;;;-1.70;99.90;;;;;;6097688;23;20010;-73
2024/01/13 03:11:20;;;;;;;1999.90;999.90;;;-1.70;99.90;;;;;;6096125;23;20145;-73
2024/01/13 03:13:45;;;;;;;1999.90;999.90;;;-1.70;99.90;;;;;;6096229;23;20039;-73
2024/01/13 03:16:11;;;;;;;1999.90;999.90;;;-1.70;99.90;;;;;;6098096;23;20093;-72
2024/01/13 03:18:37;;;;;;;1999.90;999.90;;;-1.70;99.90;;;;;;6098445;23;20699;-73
2024/01/13 03:21:04;;;;;;;1999.90;999.90;;;-1.70;99.90;;;;;;6098534;23;20011;-73
2024/01/13 03:23:29;;;;;;;1999.90;999.90;;;-1.80;99.90;;;;;;6097701;23;20499;-73
2024/01/13 03:25:55;;;;;;;1999.90;999.90;;;-1.80;99.90;;;;;;6096048;23;20038;-73
2024/01/13 03:28:24;;;;;;;1999.90;999.90;;;-1.80;99.90;;;;;;6097447;23;20014;-73
2024/01/13 03:30:50;;;;;;;1999.90;999.90;;;-1.70;99.90;;;;;;6097767;23;20108;-73
2024/01/13 03:33:17;;;;;;;1999.90;999.90;;;-1.70;99.90;;;;;;6097348;23;20165;-73
2024/01/13 03:35:42;;;;;;;1999.90;999.90;;;-1.70;99.90;;;;;;6097617;23;20015;-73
2024/01/13 03:38:08;;;;;;;1999.90;999.90;;;-1.70;99.90;;;;;;6097417;23;20019;-73
2024/01/13 03:40:33;;;;;;;1999.90;999.90;;;-1.70;99.90;;;;;;6097717;23;20015;-73
2024/01/13 03:42:59;;;;;;;1999.90;999.90;;;-1.70;99.90;;;;;;6097504;23;20014;-73
2024/01/13 03:45:25;;;;;;;1999.90;999.90;;;-1.70;99.90;;;;;;6097559;23;20007;-73
2024/01/13 03:47:50;;;;;;;1999.90;999.90;;;-1.70;99.90;;;;;;6096979;23;20007;-73
2024/01/13 03:50:16;;;;;;;1999.90;999.90;;;-1.70;99.90;;;;;;6097527;23;20154;-73
2024/01/13 03:52:42;;;;;;;1999.90;999.90;;;-1.70;99.90;;;;;;6097312;23;20014;-73
2024/01/13 03:55:08;;;;;;;1999.90;999.90;;;-1.70;99.90;;;;;;6097413;23;20027;-73
2024/01/13 03:57:33;;;;;;;1999.90;999.90;;;-1.70;99.90;;;;;;6095879;23;20019;-73
2024/01/13 03:59:59;;;;;;;1999.90;999.90;;;-1.70;99.90;;;;;;6097558;23;20007;-73
2024/01/13 04:02:25;;;;;;;1999.90;999.90;;;-1.80;99.90;;;;;;6097094;23;20502;-73
2024/01/13 04:04:51;;;;;;;1999.90;999.90;;;-1.70;99.90;;;;;;6097699;23;20098;-73
2024/01/13 04:07:16;;;;;;;1999.90;999.90;;;-1.70;99.90;;;;;;6095707;23;20091;-73
2024/01/13 04:09:42;;;;;;;1999.90;999.90;;;-1.80;99.90;;;;;;6103101;23;20091;-73
2024/01/13 04:12:08;;;;;;;1999.90;999.90;;;-1.70;99.90;;;;;;6102329;23;20446;-73
2024/01/13 04:14:33;;;;;;;1999.90;999.90;;;-1.70;99.90;;;;;;6097544;23;20007;-74
2024/01/13 04:16:59;;;;;;;1999.90;999.90;;;-1.70;99.90;;;;;;6097071;23;20023;-73
2024/01/13 04:19:25;;;;;;;1999.90;999.90;;;-1.70;99.90;;;;;;6095875;23;20077;-73
2024/01/13 04:21:51;;;;;;;1999.90;999.90;;;-1.60;99.90;;;;;;6097039;23;20525;-73
2024/01/13 04:24:16;;;;;;;1999.90;999.90;;;-1.60;99.90;;;;;;6095743;23;20387;-73
2024/01/13 04:26:43;;;;;;;1999.90;999.90;;;-1.60;99.90;;;;;;6097292;23;20062;-73
2024/01/13 04:29:09;;;;;;;1999.90;999.90;;;-1.60;99.90;;;;;;6097539;23;20003;-73
2024/01/13 04:31:35;;;;;;;1999.90;999.90;;;-1.60;99.90;;;;;;6095520;23;20110;-73
2024/01/13 04:34:00;;;;;;;1999.90;999.90;;;-1.60;99.90;;;;;;6097549;23;20014;-73
2024/01/13 04:36:26;;;;;;;1999.90;999.90;;;-1.60;99.90;;;;;;6097308;23;20011;-73
2024/01/13 04:38:52;;;;;;;1999.90;999.90;;;-1.60;99.90;;;;;;6097343;23;20007;-73
2024/01/13 04:41:17;;;;;;;1999.90;999.90;;;-1.70;99.90;;;;;;6097061;23;20439;-73
2024/01/13 04:43:43;;;;;;;1999.90;999.90;;;-1.70;99.90;;;;;;6097447;23;20003;-73
2024/01/13 04:46:10;;;;;;;1999.90;999.90;;;-1.70;99.90;;;;;;6097417;23;20007;-73
2024/01/13 04:48:36;;;;;;;1999.90;999.90;;;-1.70;99.90;;;;;;6097406;23;20038;-73
2024/01/13 04:51:02;;;;;;;1999.90;999.90;;;-1.70;99.90;;;;;;6099010;23;20019;-73
2024/01/13 04:53:27;;;;;;;1999.90;999.90;;;-1.70;99.90;;;;;;6099104;23;20447;-74
2024/01/13 04:55:53;;;;;;;1999.90;999.90;;;-1.70;99.90;;;;;;6097502;23;20026;-73
2024/01/13 04:58:19;;;;;;;1999.90;999.90;;;-1.70;99.90;;;;;;6098986;23;19999;-73
2024/01/13 05:00:44;;;;;;;1999.90;999.90;;;-1.60;99.90;;;;;;6099115;23;20030;-73
2024/01/13 05:03:10;;;;;;;1999.90;999.90;;;-1.60;99.90;;;;;;6098762;23;20030;-73
2024/01/13 05:05:36;;;;;;;1999.90;999.90;;;-1.60;99.90;;;;;;6099135;23;20375;-73
2024/01/13 05:08:02;;;;;;;1999.90;999.90;;;-1.60;99.90;;;;;;6098946;23;20031;-73
2024/01/13 05:10:27;;;;;;;1999.90;999.90;;;-1.60;99.90;;;;;;6099206;23;20166;-73
2024/01/13 05:12:53;;;;;;;1999.90;999.90;;;-1.60;99.90;;;;;;6098761;23;20082;-73
2024/01/13 05:15:18;;;;;;;1999.90;999.90;;;-1.70;99.90;;;;;;6098856;23;20038;-73
2024/01/13 05:17:44;;;;;;;1999.90;999.90;;;-1.70;99.90;;;;;;6098761;23;20007;-73
2024/01/13 05:20:10;;;;;;;1999.90;999.90;;;-1.70;99.90;;;;;;6098890;23;20015;-73
2024/01/13 05:22:35;;;;;;;1999.90;999.90;;;-1.70;99.90;;;;;;6096552;23;20011;-73
2024/01/13 05:25:01;;;;;;;1999.90;999.90;;;-1.70;99.90;;;;;;6098990;23;20098;-73
2024/01/13 05:27:27;;;;;;;1999.90;999.90;;;-1.70;99.90;;;;;;6098733;23;20066;-72
2024/01/13 05:29:52;;;;;;;1999.90;999.90;;;-1.80;99.90;;;;;;6098820;23;20479;-74
2024/01/13 05:32:18;;;;;;;1999.90;999.90;;;-1.80;99.90;;;;;;6096790;23;20011;-72
2024/01/13 05:34:43;;;;;;;1999.90;999.90;;;-1.80;99.90;;;;;;6098665;23;20343;-73
2024/01/13 05:37:09;;;;;;;1999.90;999.90;;;-1.80;99.90;;;;;;6098476;23;20014;-73
2024/01/13 05:39:35;;;;;;;1999.90;999.90;;;-1.80;99.90;;;;;;6098846;23;20007;-73
2024/01/13 05:42:00;;;;;;;1999.90;999.90;;;-1.80;99.90;;;;;;6096722;23;20011;-73
2024/01/13 05:44:26;;;;;;;1999.90;999.90;;;-1.80;99.90;;;;;;6097095;23;20007;-73
2024/01/13 05:46:52;;;;;;;1999.90;999.90;;;-1.80;99.90;;;;;;6098637;23;20065;-73
2024/01/13 05:49:17;;;;;;;1999.90;999.90;;;-1.80;99.90;;;;;;6098528;23;20062;-73
2024/01/13 05:51:43;;;;;;;1999.90;999.90;;;-1.90;99.90;;;;;;6096535;23;20027;-73
2024/01/13 05:54:09;;;;;;;1999.90;999.90;;;-1.80;99.90;;;;;;6097012;23;20011;-73
2024/01/13 05:56:35;;;;;;;1999.90;999.90;;;-1.90;99.90;;;;;;6096903;23;20480;-73
2024/01/13 05:59:01;;;;;;;1999.90;999.90;;;-1.90;99.90;;;;;;6098126;23;20007;-73
2024/01/13 06:01:27;;;;;;;1999.90;999.90;;;-1.90;99.90;;;;;;6098373;23;20070;-73
2024/01/13 06:03:52;;;;;;;1999.90;999.90;;;-1.90;99.90;;;;;;6098406;23;20431;-73
2024/01/13 06:06:18;;;;;;;1999.90;999.90;;;-2.00;99.90;;;;;;6098462;23;20017;-73
2024/01/13 06:08:44;;;;;;;1999.90;999.90;;;-2.00;99.90;;;;;;6097399;23;20038;-73
2024/01/13 06:11:09;;;;;;;1999.90;999.90;;;-2.00;99.90;;;;;;6097232;23;20041;-73
2024/01/13 06:13:35;;;;;;;1999.90;999.90;;;-1.90;99.90;;;;;;6097471;23;20101;-73
2024/01/13 06:16:00;;;;;;;1999.90;999.90;;;-1.90;99.90;;;;;;6097206;23;20042;-73
2024/01/13 06:18:26;;;;;;;1999.90;999.90;;;-1.90;99.90;;;;;;6095604;23;20427;-73
2024/01/13 06:20:52;;;;;;;1999.90;999.90;;;-1.90;99.90;;;;;;6095553;23;20403;-73
2024/01/13 06:23:17;;;;;;;1999.90;999.90;;;-2.00;99.90;;;;;;6097432;23;20003;-73
2024/01/13 06:25:43;;;;;;;1999.90;999.90;;;-2.00;99.90;;;;;;6098058;23;20082;-73
2024/01/13 06:28:08;;;;;;;1999.90;999.90;;;-2.00;99.90;;;;;;6097477;23;20061;-73
2024/01/13 06:30:34;;;;;;;1999.90;999.90;;;-1.90;99.90;;;;;;6097593;23;20097;-73
2024/01/13 06:33:00;;;;;;;1999.90;999.90;;;-2.00;99.90;;;;;;6097479;23;20031;-73
2024/01/13 06:35:25;;;;;;;1999.90;999.90;;;-2.10;99.90;;;;;;6096036;23;20011;-73
2024/01/13 06:37:52;;;;;;;1999.90;999.90;;;-2.10;99.90;;;;;;6097355;23;20013;-73
2024/01/13 06:40:17;;;;;;;1999.90;999.90;;;-2.10;99.90;;;;;;6097633;23;20007;-72
2024/01/13 06:42:43;;;;;;;1999.90;999.90;;;-2.10;99.90;;;;;;6095650;23;20006;-73
2024/01/13 06:45:09;;;;;;;1999.90;999.90;;;-2.00;99.90;;;;;;6097753;23;20011;-73
2024/01/13 06:47:34;;;;;;;1999.90;999.90;;;-2.00;99.90;;;;;;6095465;23;20362;-73
2024/01/13 06:50:00;;;;;;;1999.90;999.90;;;-2.00;99.90;;;;;;6095984;23;20049;-73
2024/01/13 06:52:25;;;;;;;1999.90;999.90;;;-2.00;99.90;;;;;;6097859;23;20007;-73
2024/01/13 06:54:51;;;;;;;1999.90;999.90;;;-2.00;99.90;;;;;;6096246;23;20033;-73
2024/01/13 06:57:17;;;;;;;1999.90;999.90;;;-1.90;99.90;;;;;;6097762;23;20042;-73
2024/01/13 06:59:45;;;;;;;1999.90;999.90;;;-1.90;99.90;;;;;;6097932;23;20027;-73
2024/01/13 07:02:11;;;;;;;1999.90;999.90;;;-1.90;99.90;;;;;;6097600;23;20074;-73
2024/01/13 07:04:38;;;;;;;1999.90;999.90;;;-2.00;99.90;;;;;;6097840;23;20066;-73
2024/01/13 07:07:05;;;;;;;1999.90;999.90;;;-2.00;99.90;;;;;;6096031;23;20073;-73
2024/01/13 07:09:30;;;;;;;1999.90;999.90;;;-2.00;99.90;;;;;;6098102;23;20717;-73
2024/01/13 07:11:56;;;;;;;1999.90;999.90;;;-2.00;99.90;;;;;;6097987;23;20057;-73
2024/01/13 07:14:22;;;;;;;1999.90;999.90;;;-2.00;99.90;;;;;;6098311;23;20085;-74
2024/01/13 07:16:47;;;;;;;1999.90;999.90;;;-2.00;99.90;;;;;;6098149;23;20023;-73
2024/01/13 07:19:13;;;;;;;1999.90;999.90;;;-2.00;99.90;;;;;;6096514;23;20011;-74
2024/01/13 07:21:38;;;;;;;1999.90;999.90;;;-2.00;99.90;;;;;;6098025;23;20007;-74
2024/01/13 07:24:06;;;;;;;1999.90;999.90;;;-2.10;99.90;;;;;;6097926;23;20086;-73
2024/01/13 07:26:31;;;;;;;1999.90;999.90;;;-2.10;99.90;;;;;;6097737;23;20015;-73
2024/01/13 07:28:57;;;;;;;1999.90;999.90;;;-2.10;99.90;;;;;;6095900;23;20006;-74
2024/01/13 07:31:22;;;;;;;1999.90;999.90;;;-2.10;99.90;;;;;;6097677;23;20011;-74
2024/01/13 07:33:48;;;;;;;1999.90;999.90;;;-2.00;99.90;;;;;;6098083;23;20022;-75
2024/01/13 07:36:13;;;;;;;1999.90;999.90;;;-2.10;99.90;;;;;;6097562;23;20015;-74
2024/01/13 07:38:39;;;;;;;1999.90;999.90;;;-2.00;99.90;;;;;;6097454;23;20003;-75
2024/01/13 07:41:07;;;;;;;1999.90;999.90;;;-2.00;99.90;;;;;;6097424;23;20347;-75
2024/01/13 07:43:32;;;;;;;1999.90;999.90;;;-2.00;99.90;;;;;;6097687;23;20011;-74
2024/01/13 07:45:59;;;;;;;1999.90;999.90;;;-1.90;99.90;;;;;;6097774;23;20021;-74
2024/01/13 07:48:24;;;;;;;1999.90;999.90;;;-2.00;99.90;;;;;;6095440;23;20050;-74
2024/01/13 07:50:50;;;;;;;1999.90;999.90;;;-1.90;99.90;;;;;;6097622;23;20438;-74
2024/01/13 07:53:15;;;;;;;1999.90;999.90;;;-1.90;99.90;;;;;;6095028;23;20015;-75
2024/01/13 07:55:41;;;;;;;1999.90;999.90;;;-1.80;99.90;;;;;;6095929;23;20102;-74
2024/01/13 07:58:06;;;;;;;1999.90;999.90;;;-1.80;99.90;;;;;;6097148;23;19999;-73
2024/01/13 08:00:32;;;;;;;1999.90;999.90;;;-1.90;99.90;;;;;;6095931;23;20041;-74
2024/01/13 08:02:58;;;;;;;1999.90;999.90;;;-1.90;99.90;;;;;;6097261;23;20007;-74
2024/01/13 08:05:24;;;;;;;1999.90;999.90;;;-1.90;99.90;;;;;;6095971;23;20087;-74
2024/01/13 08:07:49;;;;;;;1999.90;999.90;;;-1.90;99.90;;;;;;6095379;23;20102;-73
2024/01/13 08:10:15;;;;;;;1999.90;999.90;;;-1.90;99.90;;;;;;6097573;23;20033;-73
2024/01/13 08:12:40;;;;;;;1999.90;999.90;;;-1.90;99.90;;;;;;6097005;23;20007;-75
2024/01/13 08:15:07;;;;;;;1999.90;999.90;;;-1.80;99.90;;;;;;6095893;23;20466;-75
2024/01/13 08:17:32;;;;;;;1999.90;999.90;;;-1.80;99.90;;;;;;6097102;23;20444;-79
2024/01/13 08:19:58;;;;;;;1999.90;999.90;;;-1.80;99.90;;;;;;6096071;23;20086;-75
2024/01/13 08:22:23;;;;;;;1999.90;999.90;;;-1.70;99.90;;;;;;6095717;23;20319;-75
2024/01/13 08:24:49;;;;;;;1999.90;999.90;;;-1.70;99.90;;;;;;6098943;23;20010;-74
2024/01/13 08:27:15;;;;;;;1999.90;999.90;;;-1.70;99.90;;;;;;6097569;23;20011;-73
2024/01/13 08:29:40;;;;;;;1999.90;999.90;;;-1.70;99.90;;;;;;6097810;23;20089;-73
2024/01/13 08:32:07;;;;;;;1999.90;999.90;;;-1.70;99.90;;;;;;6099124;23;20018;-74
2024/01/13 08:34:33;;;;;;;1999.90;999.90;;;-1.70;99.90;;;;;;6097854;23;20018;-74
2024/01/13 08:36:58;;;;;;;1999.90;999.90;;;-1.70;99.90;;;;;;6098831;23;20687;-74
2024/01/13 08:39:24;;;;;;;1999.90;999.90;;;-1.70;99.90;;;;;;6099193;23;20003;-75
2024/01/13 08:41:49;;;;;;;1999.90;999.90;;;-1.70;99.90;;;;;;6098592;23;20033;-75
2024/01/13 08:44:18;;;;;;;1999.90;999.90;;;-1.70;99.90;;;;;;6097415;23;20042;-75
2024/01/13 08:46:43;;;;;;;1999.90;999.90;;;-1.60;99.90;;;;;;6097243;23;20019;-75
2024/01/13 08:49:09;;;;;;;1999.90;999.90;;;-1.60;99.90;;;;;;6097192;23;20449;-75
2024/01/13 08:51:34;;;;;;;1999.90;999.90;;;-1.60;99.90;;;;;;6098756;23;20351;-74
2024/01/13 08:54:01;;;;;;;1999.90;999.90;;;-1.60;99.90;;;;;;6099080;23;20435;-74
2024/01/13 08:56:26;;;;;;;1999.90;999.90;;;-1.60;99.90;;;;;;6099190;23;20015;-74
2024/01/13 08:58:52;;;;;;;1999.90;999.90;;;-1.50;99.90;;;;;;6098724;23;20008;-73
2024/01/13 09:01:18;;;;;;;1999.90;999.90;;;-1.50;99.90;;;;;;6098634;23;20350;-73
2024/01/13 09:03:45;;;;;;;1999.90;999.90;;;-1.40;99.90;;;;;;6098868;23;20424;-74
2024/01/13 09:06:11;;;;;;;1999.90;999.90;;;-1.40;99.90;;;;;;6098861;23;20320;-74
2024/01/13 09:08:38;;;;;;;1999.90;999.90;;;-1.30;99.90;;;;;;6098544;23;20013;-73
2024/01/13 09:11:04;;;;;;;1999.90;999.90;;;-1.30;99.90;;;;;;6098577;23;20037;-73
2024/01/13 09:13:30;;;;;;;1999.90;999.90;;;-1.30;99.90;;;;;;6097008;23;20011;-74
2024/01/13 09:15:55;;;;;;;1999.90;999.90;;;-1.30;99.90;;;;;;6096482;23;20011;-72
2024/01/13 09:18:21;;;;;;;1999.90;999.90;;;-1.30;99.90;;;;;;6098452;23;20517;-73
2024/01/13 09:20:46;;;;;;;1999.90;999.90;;;-1.30;99.90;;;;;;6097102;23;20014;-74
2024/01/13 09:23:12;;;;;;;1999.90;999.90;;;-1.20;99.90;;;;;;6098447;23;20361;-73
2024/01/13 09:25:38;;;;;;;1999.90;999.90;;;-1.30;99.90;;;;;;6098449;23;20730;-74
2024/01/13 09:28:03;;;;;;;1999.90;999.90;;;-1.30;99.90;;;;;;6098461;23;20003;-73
2024/01/13 09:30:29;;;;;;;1999.90;999.90;;;-1.30;99.90;;;;;;6098715;23;20007;-74
2024/01/13 09:32:54;;;;;;;1999.90;999.90;;;-1.20;99.90;;;;;;6098429;23;20011;-74
2024/01/13 09:35:20;;;;;;;1999.90;999.90;;;-1.30;99.90;;;;;;6091714;23;20023;-75
2024/01/13 09:37:45;;;;;;;1999.90;999.90;;;-1.20;99.90;;;;;;6097978;23;20018;-76
2024/01/13 09:40:12;;;;;;;1999.90;999.90;;;-1.10;99.90;;;;;;6096619;23;20030;-73
2024/01/13 09:43:02;;;;;;;1999.90;999.90;;;-1.10;99.90;;;;;;6096692;23;20011;-72
2024/01/13 09:45:28;;;;;;;1999.90;999.90;;;-1.20;99.90;;;;;;6097806;23;20122;-72
2024/01/13 09:47:57;;;;;;;1999.90;999.90;;;-1.10;99.90;;;;;;6095980;23;20014;-72
2024/01/13 09:50:23;;;;;;;1999.90;999.90;;;-1.10;99.90;;;;;;6098642;23;20098;-78
2024/01/13 09:52:48;;;;;;;1999.90;999.90;;;-1.10;99.90;;;;;;6097303;23;20003;-80
2024/01/13 09:55:17;;;;;;;1999.90;999.90;;;-1.00;99.90;;;;;;6096504;23;20450;-81
2024/01/13 09:57:42;;;;;;;1999.90;999.90;;;-0.90;99.90;;;;;;6097304;23;20011;-74
2024/01/13 10:00:09;;;;;;;1999.90;999.90;;;-0.80;99.90;;;;;;6097812;23;20334;-75
2024/01/13 10:02:34;;;;;;;1999.90;999.90;;;-0.90;99.90;;;;;;6095170;23;20014;-75
2024/01/13 10:05:00;;;;;;;1999.90;999.90;;;-0.80;99.90;;;;;;6097553;23;20018;-75
2024/01/13 10:07:28;;;;;;;1999.90;999.90;;;-0.70;99.90;;;;;;6098117;23;20379;-74
2024/01/13 10:09:54;;;;;;;1999.90;999.90;;;-0.80;99.90;;;;;;6097212;23;20015;-79
2024/01/13 10:12:20;;;;;;;1999.90;999.90;;;-0.80;99.90;;;;;;6097057;23;20509;-72
2024/01/13 10:14:46;;;;;;;1999.90;999.90;;;-0.80;99.90;;;;;;6097087;23;20080;-75
2024/01/13 10:17:11;;;;;;;1999.90;999.90;;;-0.80;99.90;;;;;;6096788;23;20019;-75
2024/01/13 10:19:38;;;;;;;1999.90;999.90;;;-0.80;99.90;;;;;;6097396;23;20363;-74
2024/01/13 10:22:05;;;;;;;1999.90;999.90;;;-0.80;99.90;;;;;;6097061;23;20490;-74
2024/01/13 10:24:31;;;;;;;1999.90;999.90;;;-0.80;99.90;;;;;;6097291;23;20003;-80
2024/01/13 10:26:57;;;;;;;1999.90;999.90;;;-0.70;99.90;;;;;;6095816;23;20015;-74
2024/01/13 10:29:23;;;;;;;1999.90;999.90;;;-0.80;99.90;;;;;;6097158;23;20003;-74
2024/01/13 10:31:52;;;;;;;1999.90;999.90;;;-0.70;99.90;;;;;;6096074;23;20042;-74
2024/01/13 10:34:21;;;;;;;1999.90;999.90;;;-0.70;99.90;;;;;;6096842;23;20003;-75
2024/01/13 10:36:47;;;;;;;1999.90;999.90;;;-0.70;99.90;;;;;;6095289;23;20068;-74
2024/01/13 10:39:12;;;;;;;1999.90;999.90;;;-0.70;99.90;;;;;;6097257;23;20076;-75
2024/01/13 10:41:43;;;;;;;1999.90;999.90;;;-0.70;99.90;;;;;;6096621;23;20015;-75
2024/01/13 10:44:09;;;;;;;1999.90;999.90;;;-0.70;99.90;;;;;;6097105;23;20057;-75
2024/01/13 10:46:38;;;;;;;1999.90;999.90;;;-0.70;99.90;;;;;;6096723;23;20015;-74
2024/01/13 10:49:11;;;;;;;1999.90;999.90;;;-0.60;99.90;;;;;;6097542;23;20417;-74
2024/01/13 10:51:51;;;;;;;1999.90;999.90;;;-0.60;99.90;;;;;;6097020;23;20073;-75
2024/01/13 10:54:18;;;;;;;1999.90;999.90;;;-0.50;99.90;;;;;;6097212;23;20011;-74
2024/01/13 10:56:44;;;;;;;1999.90;999.90;;;-0.60;99.90;;;;;;6096452;23;20042;-75
2024/01/13 10:59:10;;;;;;;1999.90;999.90;;;-0.60;99.90;;;;;;6096964;23;20529;-74
2024/01/13 11:05:46;;;;;;;1999.90;999.90;;;;;;;;;;5133807;27;20401;-82
2024/01/13 11:08:13;;;;;;;1999.90;999.90;;;-0.40;99.90;;;;;;5126619;27;20460;-83
2024/01/13 11:10:46;;;;;;;1999.90;999.90;;;-0.40;99.90;;;;;;5122895;27;20059;-82
2024/01/13 11:13:18;;;;;;;1999.90;999.90;;;;;;;;;;5123013;27;20043;-82
2024/01/13 11:15:47;;;;;;;1999.90;999.90;;;;;;;;;;5129535;27;20032;-82
2024/01/13 11:18:17;;;;;;;1999.90;999.90;;;;;;;;;;5122858;27;20031;-84
2024/01/13 11:21:02;;;;;;;1999.90;999.90;;;-0.60;99.90;;;;;;5131397;27;20035;-81
2024/01/13 11:23:29;;;;;;;1999.90;999.90;;;;;;;;;;5126810;27;20572;-81
2024/01/13 11:25:54;;;;;;;1999.90;999.90;;;-0.80;99.90;;;;;;5135066;27;20043;-82
2024/01/13 11:28:22;;;;;;;1999.90;999.90;;;;;;;;;;5122141;27;20036;-82
2024/01/13 11:30:48;;;;;;;1999.90;999.90;;;;;;;;;;5114664;27;20082;-82
2024/01/13 11:33:17;;;;;;;1999.90;999.90;;;-0.80;99.90;;;;;;5116285;27;20060;-82
2024/01/13 11:35:50;;;;;;;1999.90;999.90;;;-0.80;99.90;;;;;;5129823;27;20048;-82
2024/01/13 11:38:16;;;;;;;1999.90;999.90;;;;;;;;;;5126495;27;20123;-81
2024/01/13 11:40:47;;;;;;;1999.90;999.90;;;-0.80;99.90;;;;;;5113322;27;20043;-81
2024/01/13 11:43:23;;;;;;;1999.90;999.90;;;-0.60;99.90;;;;;;5123311;27;20044;-83
2024/01/13 11:45:50;;;;;;;1999.90;999.90;;;-0.60;99.90;;;;;;5124038;27;20131;-83
2024/01/13 11:48:37;;;;;;;1999.90;999.90;;;-0.40;99.90;;;;;;5126010;27;20032;-83
2024/01/13 11:51:08;;;;;;;1999.90;999.90;;;-0.50;99.90;;;;;;5111399;28;20568;-83
2024/01/13 11:53:35;;;;;;;1999.90;999.90;;;-0.50;99.90;;;;;;5119486;27;20098;-83
2024/01/13 11:56:03;;;;;;;1999.90;999.90;;;-0.60;99.90;;;;;;5132768;27;20449;-83
2024/01/13 11:58:29;;;;;;;1999.90;999.90;;;-0.60;99.90;;;;;;5125634;27;20024;-83
2024/01/13 12:00:55;;;;;;;1999.90;999.90;;;-0.60;99.90;;;;;;5117135;27;20035;-82